sensor_id;sensor_type;location;lat;lon;timestamp;temperature;humidity
18690;DHT22;9782;52.930;15.562;2023-08-06T00:00:38;17.10;1.00
18690;DHT22;9782;52.930;15.562;2023-08-06T00:03:04;17.10;1.00
18690;DHT22;9782;52.930;15.562;2023-08-06T00:05:31;17.10;1.00
18690;DHT22;9782;52.930;15.562;2023-08-06T00:07:59;17.10;1.00
18690;DHT22;9782;52.930;15.562;2023-08-06T00:10:26;17.00;1.00
18690;DHT22;9782;52.930;15.562;2023-08-06T00:12:53;17.00;1.00
18690;DHT22;9782;52.930;15.562;2023-08-06T00:15:20;17.00;1.00
18690;DHT22;9782;52.930;15.562;2023-08-06T00:17:47;17.00;1.00
18690;DHT22;9782;52.930;15.562;2023-08-06T00:20:14;16.90;1.00
18690;DHT22;9782;52.930;15.562;2023-08-06T00:22:40;16.90;1.00
18690;DHT22;9782;52.930;15.562;2023-08-06T00:25:09;16.80;1.00
18690;DHT22;9782;52.930;15.562;2023-08-06T00:27:36;16.90;1.00
18690;DHT22;9782;52.930;15.562;2023-08-06T00:30:04;16.80;1.00
18690;DHT22;9782;52.930;15.562;2023-08-06T00:32:31;16.70;18.40
18690;DHT22;9782;52.930;15.562;2023-08-06T00:34:58;16.70;99.90
18690;DHT22;9782;52.930;15.562;2023-08-06T00:37:25;16.70;99.90
18690;DHT22;9782;52.930;15.562;2023-08-06T00:39:51;16.70;99.90
18690;DHT22;9782;52.930;15.562;2023-08-06T00:42:20;16.70;99.90
18690;DHT22;9782;52.930;15.562;2023-08-06T00:44:47;16.70;1.00
18690;DHT22;9782;52.930;15.562;2023-08-06T00:47:15;16.70;99.90
18690;DHT22;9782;52.930;15.562;2023-08-06T00:49:42;16.70;1.00
18690;DHT22;9782;52.930;15.562;2023-08-06T00:52:09;16.70;1.00
18690;DHT22;9782;52.930;15.562;2023-08-06T00:54:38;16.70;1.00
18690;DHT22;9782;52.930;15.562;2023-08-06T00:57:07;16.60;1.00
18690;DHT22;9782;52.930;15.562;2023-08-06T00:59:36;16.60;1.00
18690;DHT22;9782;52.930;15.562;2023-08-06T01:02:03;16.60;1.00
18690;DHT22;9782;52.930;15.562;2023-08-06T01:04:29;16.60;1.00
18690;DHT22;9782;52.930;15.562;2023-08-06T01:07:07;16.60;1.00
18690;DHT22;9782;52.930;15.562;2023-08-06T01:09:43;16.60;1.00
18690;DHT22;9782;52.930;15.562;2023-08-06T01:12:18;16.60;1.00
18690;DHT22;9782;52.930;15.562;2023-08-06T01:14:53;16.50;1.00
18690;DHT22;9782;52.930;15.562;2023-08-06T01:17:24;16.50;1.00
18690;DHT22;9782;52.930;15.562;2023-08-06T01:19:52;16.40;1.00
18690;DHT22;9782;52.930;15.562;2023-08-06T01:22:20;16.40;1.00
18690;DHT22;9782;52.930;15.562;2023-08-06T01:24:49;16.40;1.00
18690;DHT22;9782;52.930;15.562;2023-08-06T01:27:23;16.40;1.00
18690;DHT22;9782;52.930;15.562;2023-08-06T01:29:57;16.40;1.00
18690;DHT22;9782;52.930;15.562;2023-08-06T01:32:29;16.40;1.00
18690;DHT22;9782;52.930;15.562;2023-08-06T01:34:57;16.40;1.00
18690;DHT22;9782;52.930;15.562;2023-08-06T01:37:28;16.40;1.00
18690;DHT22;9782;52.930;15.562;2023-08-06T01:39:55;16.30;1.00
18690;DHT22;9782;52.930;15.562;2023-08-06T01:42:22;16.30;1.00
18690;DHT22;9782;52.930;15.562;2023-08-06T01:44:49;16.30;1.00
18690;DHT22;9782;52.930;15.562;2023-08-06T01:47:15;16.30;1.00
18690;DHT22;9782;52.930;15.562;2023-08-06T01:49:42;16.40;1.00
18690;DHT22;9782;52.930;15.562;2023-08-06T01:52:09;16.40;1.00
18690;DHT22;9782;52.930;15.562;2023-08-06T01:54:37;16.40;1.00
18690;DHT22;9782;52.930;15.562;2023-08-06T01:57:05;16.40;1.00
18690;DHT22;9782;52.930;15.562;2023-08-06T01:59:31;16.30;1.00
18690;DHT22;9782;52.930;15.562;2023-08-06T02:01:59;16.30;1.00
18690;DHT22;9782;52.930;15.562;2023-08-06T02:04:26;16.30;48.20
18690;DHT22;9782;52.930;15.562;2023-08-06T02:06:52;16.30;75.20
18690;DHT22;9782;52.930;15.562;2023-08-06T02:09:19;16.30;99.90
18690;DHT22;9782;52.930;15.562;2023-08-06T02:11:47;16.20;99.90
18690;DHT22;9782;52.930;15.562;2023-08-06T02:14:14;16.20;99.90
18690;DHT22;9782;52.930;15.562;2023-08-06T02:16:41;16.20;99.90
18690;DHT22;9782;52.930;15.562;2023-08-06T02:19:08;16.20;99.90
18690;DHT22;9782;52.930;15.562;2023-08-06T02:21:35;16.20;99.90
18690;DHT22;9782;52.930;15.562;2023-08-06T02:24:02;16.20;99.90
18690;DHT22;9782;52.930;15.562;2023-08-06T02:26:29;16.20;1.00
18690;DHT22;9782;52.930;15.562;2023-08-06T02:28:57;16.10;1.00
18690;DHT22;9782;52.930;15.562;2023-08-06T02:31:23;16.10;1.00
18690;DHT22;9782;52.930;15.562;2023-08-06T02:33:50;16.20;1.00
18690;DHT22;9782;52.930;15.562;2023-08-06T02:36:17;16.20;1.00
18690;DHT22;9782;52.930;15.562;2023-08-06T02:38:46;16.20;1.00
18690;DHT22;9782;52.930;15.562;2023-08-06T02:41:13;16.20;1.00
18690;DHT22;9782;52.930;15.562;2023-08-06T02:43:40;16.20;1.00
18690;DHT22;9782;52.930;15.562;2023-08-06T02:46:08;16.20;1.00
18690;DHT22;9782;52.930;15.562;2023-08-06T02:48:35;16.30;1.00
18690;DHT22;9782;52.930;15.562;2023-08-06T02:51:02;16.20;1.00
18690;DHT22;9782;52.930;15.562;2023-08-06T02:53:29;16.20;1.00
18690;DHT22;9782;52.930;15.562;2023-08-06T02:55:57;16.20;1.00
18690;DHT22;9782;52.930;15.562;2023-08-06T02:58:24;16.20;1.00
18690;DHT22;9782;52.930;15.562;2023-08-06T03:01:01;16.20;1.00
18690;DHT22;9782;52.930;15.562;2023-08-06T03:03:30;16.20;1.00
18690;DHT22;9782;52.930;15.562;2023-08-06T03:05:56;16.20;1.00
18690;DHT22;9782;52.930;15.562;2023-08-06T03:08:24;16.20;1.00
18690;DHT22;9782;52.930;15.562;2023-08-06T03:10:51;16.20;1.00
18690;DHT22;9782;52.930;15.562;2023-08-06T03:13:19;16.20;1.00
18690;DHT22;9782;52.930;15.562;2023-08-06T03:15:52;16.20;1.00
18690;DHT22;9782;52.930;15.562;2023-08-06T03:18:19;16.20;1.00
18690;DHT22;9782;52.930;15.562;2023-08-06T03:20:48;16.30;1.00
18690;DHT22;9782;52.930;15.562;2023-08-06T03:23:15;16.30;1.00
18690;DHT22;9782;52.930;15.562;2023-08-06T03:25:42;16.20;1.00
18690;DHT22;9782;52.930;15.562;2023-08-06T03:28:09;16.20;1.00
18690;DHT22;9782;52.930;15.562;2023-08-06T03:30:35;16.10;1.00
18690;DHT22;9782;52.930;15.562;2023-08-06T03:33:02;16.10;1.00
18690;DHT22;9782;52.930;15.562;2023-08-06T03:35:29;16.10;1.00
18690;DHT22;9782;52.930;15.562;2023-08-06T03:37:57;16.10;1.00
18690;DHT22;9782;52.930;15.562;2023-08-06T03:40:24;16.10;1.00
18690;DHT22;9782;52.930;15.562;2023-08-06T03:42:51;16.00;1.00
18690;DHT22;9782;52.930;15.562;2023-08-06T03:45:18;16.00;1.00
18690;DHT22;9782;52.930;15.562;2023-08-06T03:47:45;16.00;1.00
18690;DHT22;9782;52.930;15.562;2023-08-06T03:50:12;16.00;1.00
18690;DHT22;9782;52.930;15.562;2023-08-06T03:52:39;16.10;1.00
18690;DHT22;9782;52.930;15.562;2023-08-06T03:55:07;16.10;1.00
18690;DHT22;9782;52.930;15.562;2023-08-06T03:57:34;16.10;1.00
18690;DHT22;9782;52.930;15.562;2023-08-06T04:00:01;16.10;1.00
18690;DHT22;9782;52.930;15.562;2023-08-06T04:02:28;16.10;1.00
18690;DHT22;9782;52.930;15.562;2023-08-06T04:04:55;16.10;1.00
18690;DHT22;9782;52.930;15.562;2023-08-06T04:07:24;16.10;1.00
18690;DHT22;9782;52.930;15.562;2023-08-06T04:09:52;16.10;1.00
18690;DHT22;9782;52.930;15.562;2023-08-06T04:12:21;16.10;1.00
18690;DHT22;9782;52.930;15.562;2023-08-06T04:14:48;16.10;1.00
18690;DHT22;9782;52.930;15.562;2023-08-06T04:17:14;16.20;1.00
18690;DHT22;9782;52.930;15.562;2023-08-06T04:19:41;16.10;1.00
18690;DHT22;9782;52.930;15.562;2023-08-06T04:22:08;16.10;1.00
18690;DHT22;9782;52.930;15.562;2023-08-06T04:24:35;16.10;1.00
18690;DHT22;9782;52.930;15.562;2023-08-06T04:27:02;16.00;1.00
18690;DHT22;9782;52.930;15.562;2023-08-06T04:29:30;16.00;1.00
18690;DHT22;9782;52.930;15.562;2023-08-06T04:31:57;16.00;1.00
18690;DHT22;9782;52.930;15.562;2023-08-06T04:34:24;15.90;1.00
18690;DHT22;9782;52.930;15.562;2023-08-06T04:36:51;15.90;1.00
18690;DHT22;9782;52.930;15.562;2023-08-06T04:39:18;15.90;1.00
18690;DHT22;9782;52.930;15.562;2023-08-06T04:41:45;15.80;1.00
18690;DHT22;9782;52.930;15.562;2023-08-06T04:44:11;15.80;1.00
18690;DHT22;9782;52.930;15.562;2023-08-06T04:46:40;15.80;1.00
18690;DHT22;9782;52.930;15.562;2023-08-06T04:49:06;15.70;1.00
18690;DHT22;9782;52.930;15.562;2023-08-06T04:51:34;15.70;1.00
18690;DHT22;9782;52.930;15.562;2023-08-06T04:54:01;15.70;1.00
18690;DHT22;9782;52.930;15.562;2023-08-06T04:56:28;15.70;1.00
18690;DHT22;9782;52.930;15.562;2023-08-06T04:58:55;15.60;1.00
18690;DHT22;9782;52.930;15.562;2023-08-06T05:01:22;15.60;6.90
18690;DHT22;9782;52.930;15.562;2023-08-06T05:03:51;15.50;18.30
18690;DHT22;9782;52.930;15.562;2023-08-06T05:06:18;15.50;40.50
18690;DHT22;9782;52.930;15.562;2023-08-06T05:08:44;15.40;99.90
18690;DHT22;9782;52.930;15.562;2023-08-06T05:11:11;15.40;99.90
18690;DHT22;9782;52.930;15.562;2023-08-06T05:13:38;15.40;99.90
18690;DHT22;9782;52.930;15.562;2023-08-06T05:16:05;15.40;99.90
18690;DHT22;9782;52.930;15.562;2023-08-06T05:18:32;15.30;99.90
18690;DHT22;9782;52.930;15.562;2023-08-06T05:21:01;15.30;99.90
18690;DHT22;9782;52.930;15.562;2023-08-06T05:23:28;15.30;99.90
18690;DHT22;9782;52.930;15.562;2023-08-06T05:25:55;15.20;99.90
18690;DHT22;9782;52.930;15.562;2023-08-06T05:28:22;15.10;99.90
18690;DHT22;9782;52.930;15.562;2023-08-06T05:30:48;15.10;99.90
18690;DHT22;9782;52.930;15.562;2023-08-06T05:33:15;15.10;99.90
18690;DHT22;9782;52.930;15.562;2023-08-06T05:35:42;15.10;99.90
18690;DHT22;9782;52.930;15.562;2023-08-06T05:38:10;15.10;99.90
18690;DHT22;9782;52.930;15.562;2023-08-06T05:40:37;15.10;1.00
18690;DHT22;9782;52.930;15.562;2023-08-06T05:43:04;15.20;1.00
18690;DHT22;9782;52.930;15.562;2023-08-06T05:45:31;15.20;1.00
18690;DHT22;9782;52.930;15.562;2023-08-06T05:47:58;15.20;1.00
18690;DHT22;9782;52.930;15.562;2023-08-06T05:50:25;15.30;1.00
18690;DHT22;9782;52.930;15.562;2023-08-06T05:52:52;15.30;1.00
18690;DHT22;9782;52.930;15.562;2023-08-06T05:55:20;15.30;1.00
18690;DHT22;9782;52.930;15.562;2023-08-06T05:57:47;15.30;1.00
18690;DHT22;9782;52.930;15.562;2023-08-06T06:00:14;15.40;99.90
18690;DHT22;9782;52.930;15.562;2023-08-06T06:02:41;15.30;99.90
18690;DHT22;9782;52.930;15.562;2023-08-06T06:05:08;15.30;1.00
18690;DHT22;9782;52.930;15.562;2023-08-06T06:07:35;15.30;1.00
18690;DHT22;9782;52.930;15.562;2023-08-06T06:10:02;15.30;1.00
18690;DHT22;9782;52.930;15.562;2023-08-06T06:12:30;15.40;1.00
18690;DHT22;9782;52.930;15.562;2023-08-06T06:14:57;15.40;1.00
18690;DHT22;9782;52.930;15.562;2023-08-06T06:17:26;15.40;1.00
18690;DHT22;9782;52.930;15.562;2023-08-06T06:19:53;15.40;1.00
18690;DHT22;9782;52.930;15.562;2023-08-06T06:22:20;15.40;1.00
18690;DHT22;9782;52.930;15.562;2023-08-06T06:24:47;15.40;1.00
18690;DHT22;9782;52.930;15.562;2023-08-06T06:27:13;15.40;99.90
18690;DHT22;9782;52.930;15.562;2023-08-06T06:29:42;15.50;1.00
18690;DHT22;9782;52.930;15.562;2023-08-06T06:32:09;15.40;99.90
18690;DHT22;9782;52.930;15.562;2023-08-06T06:34:35;15.40;1.00
18690;DHT22;9782;52.930;15.562;2023-08-06T06:37:03;15.50;1.00
18690;DHT22;9782;52.930;15.562;2023-08-06T06:39:30;15.50;1.00
18690;DHT22;9782;52.930;15.562;2023-08-06T06:41:56;15.50;1.00
18690;DHT22;9782;52.930;15.562;2023-08-06T06:44:23;15.50;1.00
18690;DHT22;9782;52.930;15.562;2023-08-06T06:46:52;15.60;1.00
18690;DHT22;9782;52.930;15.562;2023-08-06T06:49:18;15.60;1.00
18690;DHT22;9782;52.930;15.562;2023-08-06T06:51:45;15.70;1.00
18690;DHT22;9782;52.930;15.562;2023-08-06T06:54:12;15.80;1.00
18690;DHT22;9782;52.930;15.562;2023-08-06T06:56:39;15.90;1.00
18690;DHT22;9782;52.930;15.562;2023-08-06T06:59:06;15.90;1.00
18690;DHT22;9782;52.930;15.562;2023-08-06T07:01:33;16.00;99.90
18690;DHT22;9782;52.930;15.562;2023-08-06T07:04:01;16.00;99.90
18690;DHT22;9782;52.930;15.562;2023-08-06T07:06:30;16.00;99.90
18690;DHT22;9782;52.930;15.562;2023-08-06T07:08:57;16.00;99.90
18690;DHT22;9782;52.930;15.562;2023-08-06T07:11:24;16.10;99.90
18690;DHT22;9782;52.930;15.562;2023-08-06T07:13:56;16.10;99.90
18690;DHT22;9782;52.930;15.562;2023-08-06T07:16:24;16.20;99.90
18690;DHT22;9782;52.930;15.562;2023-08-06T07:18:51;16.20;99.90
18690;DHT22;9782;52.930;15.562;2023-08-06T07:21:20;16.20;99.90
18690;DHT22;9782;52.930;15.562;2023-08-06T07:23:47;16.10;99.90
18690;DHT22;9782;52.930;15.562;2023-08-06T07:26:14;16.10;99.90
18690;DHT22;9782;52.930;15.562;2023-08-06T07:28:41;16.20;99.90
18690;DHT22;9782;52.930;15.562;2023-08-06T07:31:08;16.20;99.90
18690;DHT22;9782;52.930;15.562;2023-08-06T07:33:35;16.20;99.90
18690;DHT22;9782;52.930;15.562;2023-08-06T07:36:08;16.20;99.90
18690;DHT22;9782;52.930;15.562;2023-08-06T07:38:36;16.20;99.90
18690;DHT22;9782;52.930;15.562;2023-08-06T07:41:03;16.20;99.90
18690;DHT22;9782;52.930;15.562;2023-08-06T07:43:30;16.20;99.90
18690;DHT22;9782;52.930;15.562;2023-08-06T07:45:58;16.20;99.90
18690;DHT22;9782;52.930;15.562;2023-08-06T07:48:25;16.20;99.90
18690;DHT22;9782;52.930;15.562;2023-08-06T07:50:52;16.10;99.90
18690;DHT22;9782;52.930;15.562;2023-08-06T07:53:19;16.10;99.90
18690;DHT22;9782;52.930;15.562;2023-08-06T07:55:50;16.10;99.90
18690;DHT22;9782;52.930;15.562;2023-08-06T07:58:17;16.10;99.90
18690;DHT22;9782;52.930;15.562;2023-08-06T08:00:44;16.10;99.90
18690;DHT22;9782;52.930;15.562;2023-08-06T08:03:11;16.00;99.90
18690;DHT22;9782;52.930;15.562;2023-08-06T08:05:39;16.00;99.90
18690;DHT22;9782;52.930;15.562;2023-08-06T08:08:06;16.00;99.90
18690;DHT22;9782;52.930;15.562;2023-08-06T08:10:33;16.00;99.90
18690;DHT22;9782;52.930;15.562;2023-08-06T08:13:02;16.10;99.90
18690;DHT22;9782;52.930;15.562;2023-08-06T08:15:30;16.10;99.90
18690;DHT22;9782;52.930;15.562;2023-08-06T08:17:57;16.00;1.00
18690;DHT22;9782;52.930;15.562;2023-08-06T08:20:24;16.10;1.00
18690;DHT22;9782;52.930;15.562;2023-08-06T08:22:57;16.00;1.00
18690;DHT22;9782;52.930;15.562;2023-08-06T08:25:24;16.10;99.90
18690;DHT22;9782;52.930;15.562;2023-08-06T08:27:51;16.00;99.90
18690;DHT22;9782;52.930;15.562;2023-08-06T08:30:19;16.00;99.90
18690;DHT22;9782;52.930;15.562;2023-08-06T08:32:47;16.00;99.90
18690;DHT22;9782;52.930;15.562;2023-08-06T08:35:14;16.00;99.90
18690;DHT22;9782;52.930;15.562;2023-08-06T08:37:41;15.90;99.90
18690;DHT22;9782;52.930;15.562;2023-08-06T08:40:09;15.90;99.90
18690;DHT22;9782;52.930;15.562;2023-08-06T08:42:36;15.90;1.00
18690;DHT22;9782;52.930;15.562;2023-08-06T08:45:05;15.90;1.00
18690;DHT22;9782;52.930;15.562;2023-08-06T08:47:35;15.90;1.00
18690;DHT22;9782;52.930;15.562;2023-08-06T08:50:02;16.00;1.00
18690;DHT22;9782;52.930;15.562;2023-08-06T08:52:31;16.00;1.00
18690;DHT22;9782;52.930;15.562;2023-08-06T08:54:59;16.00;1.00
18690;DHT22;9782;52.930;15.562;2023-08-06T08:57:27;16.00;1.00
18690;DHT22;9782;52.930;15.562;2023-08-06T08:59:54;16.10;1.00
18690;DHT22;9782;52.930;15.562;2023-08-06T09:02:21;16.10;1.00
18690;DHT22;9782;52.930;15.562;2023-08-06T09:04:51;16.00;1.00
18690;DHT22;9782;52.930;15.562;2023-08-06T09:07:21;16.00;1.00
18690;DHT22;9782;52.930;15.562;2023-08-06T09:09:49;16.00;1.00
18690;DHT22;9782;52.930;15.562;2023-08-06T09:12:18;15.90;1.00
18690;DHT22;9782;52.930;15.562;2023-08-06T09:14:45;15.90;1.00
18690;DHT22;9782;52.930;15.562;2023-08-06T09:17:12;15.90;1.00
18690;DHT22;9782;52.930;15.562;2023-08-06T09:19:42;15.90;1.00
18690;DHT22;9782;52.930;15.562;2023-08-06T09:22:13;15.80;1.00
18690;DHT22;9782;52.930;15.562;2023-08-06T09:24:41;15.90;1.00
18690;DHT22;9782;52.930;15.562;2023-08-06T09:27:11;15.90;1.00
18690;DHT22;9782;52.930;15.562;2023-08-06T09:29:41;15.90;1.00
18690;DHT22;9782;52.930;15.562;2023-08-06T09:32:08;16.00;1.00
18690;DHT22;9782;52.930;15.562;2023-08-06T09:34:35;16.00;1.00
18690;DHT22;9782;52.930;15.562;2023-08-06T09:37:05;15.90;1.00
18690;DHT22;9782;52.930;15.562;2023-08-06T09:39:33;15.90;1.00
18690;DHT22;9782;52.930;15.562;2023-08-06T09:42:01;16.00;1.00
18690;DHT22;9782;52.930;15.562;2023-08-06T09:44:32;16.00;1.00
18690;DHT22;9782;52.930;15.562;2023-08-06T09:47:01;16.00;1.00
18690;DHT22;9782;52.930;15.562;2023-08-06T09:49:40;16.00;35.20
18690;DHT22;9782;52.930;15.562;2023-08-06T09:52:11;16.00;40.20
18690;DHT22;9782;52.930;15.562;2023-08-06T09:54:39;16.00;35.70
18690;DHT22;9782;52.930;15.562;2023-08-06T09:57:06;16.10;90.40
18690;DHT22;9782;52.930;15.562;2023-08-06T09:59:34;16.10;98.50
18690;DHT22;9782;52.930;15.562;2023-08-06T10:02:03;16.20;93.20
18690;DHT22;9782;52.930;15.562;2023-08-06T10:04:34;16.20;99.90
18690;DHT22;9782;52.930;15.562;2023-08-06T10:07:01;16.30;91.10
18690;DHT22;9782;52.930;15.562;2023-08-06T10:09:28;16.30;67.20
18690;DHT22;9782;52.930;15.562;2023-08-06T10:11:58;16.30;5.90
18690;DHT22;9782;52.930;15.562;2023-08-06T10:14:28;16.30;99.90
18690;DHT22;9782;52.930;15.562;2023-08-06T10:16:58;16.30;99.90
18690;DHT22;9782;52.930;15.562;2023-08-06T10:19:26;16.40;99.90
18690;DHT22;9782;52.930;15.562;2023-08-06T10:22:08;16.40;99.90
18690;DHT22;9782;52.930;15.562;2023-08-06T10:24:46;16.50;90.80
18690;DHT22;9782;52.930;15.562;2023-08-06T10:27:19;16.40;9.90
18690;DHT22;9782;52.930;15.562;2023-08-06T10:29:46;16.40;5.90
18690;DHT22;9782;52.930;15.562;2023-08-06T10:32:13;16.30;17.00
18690;DHT22;9782;52.930;15.562;2023-08-06T10:34:56;16.30;60.50
18690;DHT22;9782;52.930;15.562;2023-08-06T10:37:24;16.30;99.90
18690;DHT22;9782;52.930;15.562;2023-08-06T10:39:51;16.30;46.50
18690;DHT22;9782;52.930;15.562;2023-08-06T10:42:27;16.30;99.90
18690;DHT22;9782;52.930;15.562;2023-08-06T10:45:14;16.30;99.90
18690;DHT22;9782;52.930;15.562;2023-08-06T10:47:41;16.30;99.90
18690;DHT22;9782;52.930;15.562;2023-08-06T10:50:11;16.40;99.90
18690;DHT22;9782;52.930;15.562;2023-08-06T10:52:38;16.30;39.70
18690;DHT22;9782;52.930;15.562;2023-08-06T10:55:06;16.30;50.60
18690;DHT22;9782;52.930;15.562;2023-08-06T10:57:34;16.30;99.90
18690;DHT22;9782;52.930;15.562;2023-08-06T11:00:01;16.20;99.90
18690;DHT22;9782;52.930;15.562;2023-08-06T11:02:28;16.20;99.90
18690;DHT22;9782;52.930;15.562;2023-08-06T11:05:05;16.10;99.90
18690;DHT22;9782;52.930;15.562;2023-08-06T11:07:32;16.10;99.90
18690;DHT22;9782;52.930;15.562;2023-08-06T11:10:02;16.10;99.90
18690;DHT22;9782;52.930;15.562;2023-08-06T11:12:29;16.10;99.90
18690;DHT22;9782;52.930;15.562;2023-08-06T11:14:57;16.10;99.90
18690;DHT22;9782;52.930;15.562;2023-08-06T11:17:24;16.10;99.90
18690;DHT22;9782;52.930;15.562;2023-08-06T11:19:51;16.20;99.90
18690;DHT22;9782;52.930;15.562;2023-08-06T11:22:20;16.20;99.90
18690;DHT22;9782;52.930;15.562;2023-08-06T11:24:47;16.20;99.90
18690;DHT22;9782;52.930;15.562;2023-08-06T11:27:14;16.10;99.90
18690;DHT22;9782;52.930;15.562;2023-08-06T11:29:41;16.10;99.90
18690;DHT22;9782;52.930;15.562;2023-08-06T11:32:10;16.10;99.90
18690;DHT22;9782;52.930;15.562;2023-08-06T11:34:38;16.10;99.90
18690;DHT22;9782;52.930;15.562;2023-08-06T11:37:06;16.10;99.90
18690;DHT22;9782;52.930;15.562;2023-08-06T11:39:34;16.00;99.90
18690;DHT22;9782;52.930;15.562;2023-08-06T11:42:03;16.00;99.90
18690;DHT22;9782;52.930;15.562;2023-08-06T11:44:31;16.00;99.90
18690;DHT22;9782;52.930;15.562;2023-08-06T11:46:59;15.90;97.30
18690;DHT22;9782;52.930;15.562;2023-08-06T11:49:39;15.80;99.90
18690;DHT22;9782;52.930;15.562;2023-08-06T11:52:14;15.80;99.90
18690;DHT22;9782;52.930;15.562;2023-08-06T11:54:41;15.80;99.90
18690;DHT22;9782;52.930;15.562;2023-08-06T11:57:08;15.90;99.90
18690;DHT22;9782;52.930;15.562;2023-08-06T11:59:37;15.80;99.90
18690;DHT22;9782;52.930;15.562;2023-08-06T12:02:04;15.90;99.90
18690;DHT22;9782;52.930;15.562;2023-08-06T12:04:32;15.90;99.90
18690;DHT22;9782;52.930;15.562;2023-08-06T12:07:18;15.80;99.90
18690;DHT22;9782;52.930;15.562;2023-08-06T12:09:45;15.80;99.90
18690;DHT22;9782;52.930;15.562;2023-08-06T12:12:12;15.80;99.90
18690;DHT22;9782;52.930;15.562;2023-08-06T12:14:39;15.80;99.90
18690;DHT22;9782;52.930;15.562;2023-08-06T12:17:06;15.80;99.90
18690;DHT22;9782;52.930;15.562;2023-08-06T12:19:32;15.90;99.90
18690;DHT22;9782;52.930;15.562;2023-08-06T12:21:59;15.80;99.90
18690;DHT22;9782;52.930;15.562;2023-08-06T12:24:27;15.80;99.90
18690;DHT22;9782;52.930;15.562;2023-08-06T12:26:57;15.80;99.90
18690;DHT22;9782;52.930;15.562;2023-08-06T12:29:24;15.80;99.90
18690;DHT22;9782;52.930;15.562;2023-08-06T12:31:52;15.80;99.90
18690;DHT22;9782;52.930;15.562;2023-08-06T12:34:18;15.90;99.90
18690;DHT22;9782;52.930;15.562;2023-08-06T12:36:45;15.90;99.90
18690;DHT22;9782;52.930;15.562;2023-08-06T12:39:12;15.90;99.90
18690;DHT22;9782;52.930;15.562;2023-08-06T12:41:40;15.90;99.90
18690;DHT22;9782;52.930;15.562;2023-08-06T12:44:09;15.80;99.90
18690;DHT22;9782;52.930;15.562;2023-08-06T12:46:36;15.90;99.90
18690;DHT22;9782;52.930;15.562;2023-08-06T12:49:02;15.90;99.90
18690;DHT22;9782;52.930;15.562;2023-08-06T12:51:30;15.90;99.90
18690;DHT22;9782;52.930;15.562;2023-08-06T12:53:59;15.90;99.90
18690;DHT22;9782;52.930;15.562;2023-08-06T12:56:25;15.80;99.90
18690;DHT22;9782;52.930;15.562;2023-08-06T12:58:54;15.80;99.90
18690;DHT22;9782;52.930;15.562;2023-08-06T13:01:20;15.80;99.90
18690;DHT22;9782;52.930;15.562;2023-08-06T13:03:47;15.70;99.90
18690;DHT22;9782;52.930;15.562;2023-08-06T13:06:14;15.60;99.90
18690;DHT22;9782;52.930;15.562;2023-08-06T13:08:41;15.60;99.90
18690;DHT22;9782;52.930;15.562;2023-08-06T13:11:08;15.60;99.90
18690;DHT22;9782;52.930;15.562;2023-08-06T13:13:34;15.60;99.90
18690;DHT22;9782;52.930;15.562;2023-08-06T13:16:03;15.50;99.90
18690;DHT22;9782;52.930;15.562;2023-08-06T13:18:30;15.50;99.90
18690;DHT22;9782;52.930;15.562;2023-08-06T13:20:57;15.40;99.90
18690;DHT22;9782;52.930;15.562;2023-08-06T13:23:23;15.40;99.90
18690;DHT22;9782;52.930;15.562;2023-08-06T13:25:50;15.40;99.90
18690;DHT22;9782;52.930;15.562;2023-08-06T13:28:17;15.30;99.90
18690;DHT22;9782;52.930;15.562;2023-08-06T13:30:44;15.40;99.90
18690;DHT22;9782;52.930;15.562;2023-08-06T13:33:12;15.40;99.90
18690;DHT22;9782;52.930;15.562;2023-08-06T13:35:39;15.40;99.90
18690;DHT22;9782;52.930;15.562;2023-08-06T13:38:06;15.40;99.90
18690;DHT22;9782;52.930;15.562;2023-08-06T13:40:33;15.40;99.90
18690;DHT22;9782;52.930;15.562;2023-08-06T13:43:00;15.40;99.90
18690;DHT22;9782;52.930;15.562;2023-08-06T13:45:27;15.50;99.90
18690;DHT22;9782;52.930;15.562;2023-08-06T13:47:55;15.40;99.90
18690;DHT22;9782;52.930;15.562;2023-08-06T13:50:23;15.40;99.90
18690;DHT22;9782;52.930;15.562;2023-08-06T13:52:51;15.40;99.90
18690;DHT22;9782;52.930;15.562;2023-08-06T13:55:21;15.50;99.90
18690;DHT22;9782;52.930;15.562;2023-08-06T13:57:48;15.50;99.90
18690;DHT22;9782;52.930;15.562;2023-08-06T14:00:14;15.50;99.90
18690;DHT22;9782;52.930;15.562;2023-08-06T14:02:41;15.50;99.90
18690;DHT22;9782;52.930;15.562;2023-08-06T14:05:09;15.50;99.90
18690;DHT22;9782;52.930;15.562;2023-08-06T14:07:38;15.50;99.90
18690;DHT22;9782;52.930;15.562;2023-08-06T14:10:05;15.50;99.90
18690;DHT22;9782;52.930;15.562;2023-08-06T14:12:34;15.50;99.90
18690;DHT22;9782;52.930;15.562;2023-08-06T14:15:01;15.50;99.90
18690;DHT22;9782;52.930;15.562;2023-08-06T14:17:28;15.50;99.90
18690;DHT22;9782;52.930;15.562;2023-08-06T14:19:55;15.50;99.90
18690;DHT22;9782;52.930;15.562;2023-08-06T14:22:22;15.50;99.90
18690;DHT22;9782;52.930;15.562;2023-08-06T14:24:50;15.50;99.90
18690;DHT22;9782;52.930;15.562;2023-08-06T14:27:17;15.50;99.90
18690;DHT22;9782;52.930;15.562;2023-08-06T14:29:44;15.50;99.90
18690;DHT22;9782;52.930;15.562;2023-08-06T14:32:11;15.40;99.90
18690;DHT22;9782;52.930;15.562;2023-08-06T14:34:38;15.40;99.90
18690;DHT22;9782;52.930;15.562;2023-08-06T14:37:04;15.30;99.90
18690;DHT22;9782;52.930;15.562;2023-08-06T14:39:31;15.30;99.90
18690;DHT22;9782;52.930;15.562;2023-08-06T14:41:59;15.30;99.90
18690;DHT22;9782;52.930;15.562;2023-08-06T14:44:26;15.30;99.90
18690;DHT22;9782;52.930;15.562;2023-08-06T14:46:53;15.30;99.90
18690;DHT22;9782;52.930;15.562;2023-08-06T14:49:20;15.30;99.90
18690;DHT22;9782;52.930;15.562;2023-08-06T14:51:46;15.30;99.90
18690;DHT22;9782;52.930;15.562;2023-08-06T14:54:13;15.30;99.90
18690;DHT22;9782;52.930;15.562;2023-08-06T14:56:40;15.20;99.90
18690;DHT22;9782;52.930;15.562;2023-08-06T14:59:08;15.20;99.90
18690;DHT22;9782;52.930;15.562;2023-08-06T15:01:35;15.10;99.90
18690;DHT22;9782;52.930;15.562;2023-08-06T15:04:02;15.10;99.90
18690;DHT22;9782;52.930;15.562;2023-08-06T15:06:29;15.10;99.90
18690;DHT22;9782;52.930;15.562;2023-08-06T15:08:55;15.00;99.90
18690;DHT22;9782;52.930;15.562;2023-08-06T15:11:26;15.00;99.90
18690;DHT22;9782;52.930;15.562;2023-08-06T15:13:53;15.00;99.90
18690;DHT22;9782;52.930;15.562;2023-08-06T15:16:21;15.00;99.90
18690;DHT22;9782;52.930;15.562;2023-08-06T15:18:48;15.10;99.90
18690;DHT22;9782;52.930;15.562;2023-08-06T15:21:15;15.10;99.90
18690;DHT22;9782;52.930;15.562;2023-08-06T15:23:42;15.10;99.90
18690;DHT22;9782;52.930;15.562;2023-08-06T15:26:09;15.10;99.90
18690;DHT22;9782;52.930;15.562;2023-08-06T15:28:36;15.10;99.90
18690;DHT22;9782;52.930;15.562;2023-08-06T15:31:03;15.10;99.90
18690;DHT22;9782;52.930;15.562;2023-08-06T15:33:32;15.10;99.90
18690;DHT22;9782;52.930;15.562;2023-08-06T15:36:00;15.10;99.90
18690;DHT22;9782;52.930;15.562;2023-08-06T15:38:26;15.10;99.90
18690;DHT22;9782;52.930;15.562;2023-08-06T15:40:53;15.10;99.90